createdAt,value
2022-10-01T00:01:04.874Z,11.74
2022-10-01T00:03:31.829Z,11.69
2022-10-01T00:06:02.567Z,11.72
2022-10-01T00:08:30.553Z,11.70
2022-10-01T00:10:58.484Z,11.60
2022-10-01T00:13:25.834Z,11.68
2022-10-01T00:15:53.298Z,11.68
2022-10-01T00:18:19.834Z,11.62
2022-10-01T00:20:46.464Z,11.62
2022-10-01T00:23:14.799Z,11.69
2022-10-01T00:25:41.707Z,11.63
2022-10-01T00:28:08.402Z,11.65
2022-10-01T00:30:39.611Z,11.64
2022-10-01T00:33:06.828Z,11.59
2022-10-01T00:35:33.407Z,11.65
2022-10-01T00:37:59.871Z,11.65
2022-10-01T00:40:26.457Z,11.53
2022-10-01T00:42:52.939Z,11.48
2022-10-01T00:45:19.437Z,11.56
2022-10-01T00:47:51.852Z,11.57
2022-10-01T00:50:26.124Z,11.52
2022-10-01T00:52:57.060Z,11.53
2022-10-01T00:55:28.543Z,11.55
2022-10-01T00:57:55.451Z,11.60
2022-10-01T01:00:23.083Z,11.60
2022-10-01T01:02:49.864Z,11.54
2022-10-01T01:05:16.529Z,11.52
2022-10-01T01:07:46.930Z,11.55
2022-10-01T01:10:24.274Z,11.56
2022-10-01T01:13:01.949Z,11.57
2022-10-01T01:15:28.372Z,11.58
2022-10-01T01:18:03.648Z,11.57
2022-10-01T01:20:51.664Z,11.59
2022-10-01T01:23:18.426Z,11.60
2022-10-01T01:26:06.235Z,11.55
2022-10-01T01:28:51.690Z,11.53
2022-10-01T01:31:25.562Z,11.49
2022-10-01T01:33:55.216Z,11.53
2022-10-01T01:36:27.628Z,11.55
2022-10-01T01:39:00.324Z,11.52
2022-10-01T01:41:32.570Z,11.53
2022-10-01T01:44:02.585Z,11.51
2022-10-01T01:46:33.325Z,11.48
2022-10-01T01:49:03.906Z,11.50
2022-10-01T01:52:00.875Z,11.52
2022-10-01T01:54:30.488Z,11.47
2022-10-01T01:56:58.596Z,11.49
2022-10-01T01:59:26.864Z,11.49
2022-10-01T02:01:53.617Z,11.50
2022-10-01T02:04:25.401Z,11.48
2022-10-01T02:07:29.606Z,11.50
2022-10-01T02:10:19.435Z,11.49
2022-10-01T02:13:16.969Z,11.48
2022-10-01T02:16:15.123Z,11.52
2022-10-01T02:18:57.135Z,11.49
2022-10-01T02:21:32.099Z,11.52
2022-10-01T02:24:39.463Z,11.52
2022-10-01T02:27:16.225Z,11.53
2022-10-01T02:29:44.993Z,11.51
2022-10-01T02:32:13.905Z,11.53
2022-10-01T02:34:41.521Z,11.51
2022-10-01T02:37:10.924Z,11.56
2022-10-01T02:39:41.391Z,11.52
2022-10-01T02:42:09.977Z,11.51
2022-10-01T02:44:42.577Z,11.53
2022-10-01T02:47:19.565Z,11.57
2022-10-01T02:49:47.414Z,11.56
2022-10-01T02:52:22.587Z,11.55
2022-10-01T02:54:58.055Z,11.53
2022-10-01T02:57:28.968Z,11.55
2022-10-01T03:00:01.142Z,11.59
2022-10-01T03:02:29.479Z,11.60
2022-10-01T03:04:59.453Z,11.60
2022-10-01T03:07:28.282Z,11.59
2022-10-01T03:09:58.723Z,11.55
2022-10-01T03:12:32.356Z,11.62
2022-10-01T03:14:59.174Z,11.62
2022-10-01T03:17:25.832Z,11.64
2022-10-01T03:19:52.572Z,11.60
2022-10-01T03:22:22.779Z,11.65
2022-10-01T03:24:53.698Z,11.65
2022-10-01T03:27:21.361Z,11.66
2022-10-01T03:29:48.055Z,11.68
2022-10-01T03:32:15.095Z,11.68
2022-10-01T03:34:41.751Z,11.67
2022-10-01T03:37:08.474Z,11.71
2022-10-01T03:39:36.110Z,11.75
2022-10-01T03:42:03.870Z,11.72
2022-10-01T03:44:30.360Z,11.74
2022-10-01T03:46:56.841Z,11.80
2022-10-01T03:49:23.413Z,11.79
2022-10-01T03:51:50.284Z,11.83
2022-10-01T03:54:18.016Z,11.79
2022-10-01T03:56:44.493Z,11.86
2022-10-01T03:59:11.939Z,11.86
2022-10-01T04:01:39.374Z,11.87
2022-10-01T04:04:06.422Z,11.93
2022-10-01T04:06:33.130Z,11.87
2022-10-01T04:08:59.596Z,11.87
2022-10-01T04:11:26.228Z,11.86
2022-10-01T04:13:52.887Z,11.95
2022-10-01T04:16:19.491Z,11.89
2022-10-01T04:18:46.038Z,11.93
2022-10-01T04:21:12.953Z,12.01
2022-10-01T04:23:39.468Z,11.91
2022-10-01T04:26:06.129Z,12.00
2022-10-01T04:28:32.711Z,12.02
2022-10-01T04:31:18.399Z,12.06
2022-10-01T04:33:45.294Z,12.06
2022-10-01T04:36:12.155Z,12.01
2022-10-01T04:38:38.645Z,12.02
2022-10-01T04:41:05.338Z,12.05
2022-10-01T04:43:31.861Z,12.09
2022-10-01T04:45:58.868Z,12.07
2022-10-01T04:48:25.555Z,12.13
2022-10-01T04:50:52.163Z,12.11
2022-10-01T04:53:18.805Z,12.12
2022-10-01T04:55:46.417Z,12.17
2022-10-01T04:58:13.080Z,12.23
2022-10-01T05:00:39.655Z,12.14
2022-10-01T05:03:06.196Z,12.18
2022-10-01T05:05:34.912Z,12.19
2022-10-01T05:08:01.962Z,12.22
2022-10-01T05:10:28.502Z,12.26
2022-10-01T05:12:55.095Z,12.21
2022-10-01T05:15:21.783Z,12.24
2022-10-01T05:17:48.393Z,12.24
2022-10-01T05:20:20.544Z,12.21
2022-10-01T05:22:47.744Z,12.32
2022-10-01T05:25:14.625Z,12.24
2022-10-01T05:27:41.222Z,12.20
2022-10-01T05:30:10.724Z,12.30
2022-10-01T05:32:37.922Z,12.21
2022-10-01T05:35:07.120Z,12.27
2022-10-01T05:37:34.480Z,12.19
2022-10-01T05:40:01.813Z,12.26
2022-10-01T05:42:28.568Z,12.27
2022-10-01T05:44:56.323Z,12.31
2022-10-01T05:47:23.257Z,12.34
2022-10-01T05:49:54.935Z,12.30
2022-10-01T05:52:21.419Z,12.31
2022-10-01T05:54:47.936Z,12.31
2022-10-01T05:57:14.484Z,12.34
2022-10-01T05:59:40.950Z,12.39
2022-10-01T06:02:09.793Z,12.37
2022-10-01T06:04:40.900Z,12.33
2022-10-01T06:07:07.774Z,12.33
2022-10-01T06:09:34.394Z,12.29
2022-10-01T06:12:01.062Z,12.30
2022-10-01T06:14:27.670Z,12.38
2022-10-01T06:16:54.789Z,12.44
2022-10-01T06:19:21.600Z,12.42
2022-10-01T06:21:50.150Z,12.35
2022-10-01T06:24:16.634Z,12.33
2022-10-01T06:26:43.749Z,12.48
2022-10-01T06:29:10.799Z,12.34
2022-10-01T06:31:53.533Z,12.31
2022-10-01T06:34:20.136Z,12.53
2022-10-01T06:36:46.658Z,12.38
2022-10-01T06:39:13.156Z,12.35
2022-10-01T06:41:40.858Z,12.46
2022-10-01T06:44:07.582Z,12.56
2022-10-01T06:46:34.046Z,12.47
2022-10-01T06:49:00.514Z,12.55
2022-10-01T06:51:45.700Z,12.44
2022-10-01T06:54:12.291Z,12.53
2022-10-01T06:56:38.807Z,12.56
2022-10-01T06:59:05.279Z,12.62
2022-10-01T07:01:32.958Z,12.80
2022-10-01T07:03:59.805Z,12.71
2022-10-01T07:06:26.396Z,12.79
2022-10-01T07:08:52.848Z,12.86
2022-10-01T07:11:19.648Z,12.88
2022-10-01T07:13:47.546Z,13.05
2022-10-01T07:16:16.537Z,13.11
2022-10-01T07:18:43.071Z,13.16
2022-10-01T07:21:09.758Z,13.40
2022-10-01T07:23:36.251Z,13.29
2022-10-01T07:26:08.825Z,13.47
2022-10-01T07:28:35.613Z,13.60
2022-10-01T07:31:11.214Z,13.79
2022-10-01T07:33:41.342Z,13.78
2022-10-01T07:36:09.414Z,14.06
2022-10-01T07:38:35.890Z,14.05
2022-10-01T07:41:03.442Z,14.01
2022-10-01T07:43:31.265Z,13.97
2022-10-01T07:46:00.412Z,13.91
2022-10-01T07:48:27.759Z,13.85
2022-10-01T07:50:54.268Z,13.92
2022-10-01T07:53:20.794Z,13.77
2022-10-01T07:55:47.267Z,13.77
2022-10-01T07:58:13.785Z,13.86
2022-10-01T08:00:40.338Z,13.91
2022-10-01T08:03:07.064Z,13.93
2022-10-01T08:05:35.794Z,14.09
2022-10-01T08:08:07.654Z,14.14
2022-10-01T08:10:36.828Z,14.15
2022-10-01T08:13:14.305Z,14.37
2022-10-01T08:15:42.296Z,14.46
2022-10-01T08:18:08.790Z,14.53
2022-10-01T08:20:35.580Z,14.70
2022-10-01T08:23:10.822Z,14.64
2022-10-01T08:25:37.661Z,14.63
2022-10-01T08:28:05.087Z,14.60
2022-10-01T08:30:31.658Z,14.51
2022-10-01T08:32:59.781Z,14.40
2022-10-01T08:35:28.412Z,14.42
2022-10-01T08:37:57.794Z,14.33
2022-10-01T08:40:24.597Z,14.28
2022-10-01T08:43:00.062Z,14.34
2022-10-01T08:45:28.751Z,14.42
2022-10-01T08:48:02.541Z,14.38
2022-10-01T08:50:38.146Z,14.44
2022-10-01T08:53:10.946Z,14.21
2022-10-01T08:55:37.941Z,14.39
2022-10-01T08:58:07.457Z,14.32
2022-10-01T09:00:36.707Z,14.27
2022-10-01T09:03:10.601Z,14.26
2022-10-01T09:05:51.262Z,14.29
2022-10-01T09:08:17.709Z,14.29
2022-10-01T09:10:54.891Z,14.29
2022-10-01T09:13:40.337Z,14.31
2022-10-01T09:16:12.855Z,14.39
2022-10-01T09:18:58.051Z,14.41
2022-10-01T09:21:52.418Z,14.80
2022-10-01T09:24:40.666Z,14.91
2022-10-01T09:27:16.475Z,14.77
2022-10-01T09:29:56.464Z,15.49
2022-10-01T09:32:27.879Z,15.74
2022-10-01T09:34:54.696Z,15.72
2022-10-01T09:37:42.544Z,15.83
2022-10-01T09:40:35.645Z,16.34
2022-10-01T09:43:08.259Z,16.43
2022-10-01T09:45:35.543Z,16.66
2022-10-01T09:48:19.763Z,16.58
2022-10-01T09:50:54.534Z,16.74
2022-10-01T17:06:30.580Z,16.59
2022-10-01T17:08:58.257Z,16.54
2022-10-01T17:11:25.539Z,16.46
2022-10-01T17:13:52.247Z,16.31
2022-10-01T17:16:34.502Z,16.37
2022-10-01T17:19:02.088Z,16.37
2022-10-01T17:21:29.608Z,16.33
2022-10-01T17:23:56.105Z,16.26
2022-10-01T17:26:22.596Z,16.32
2022-10-01T17:28:50.734Z,16.40
2022-10-01T17:31:18.205Z,16.26
2022-10-01T17:33:45.212Z,16.29
2022-10-01T17:36:11.837Z,15.98
2022-10-01T17:38:40.245Z,15.98
2022-10-01T17:41:06.855Z,15.82
2022-10-01T17:43:33.396Z,16.02
2022-10-01T17:46:01.152Z,16.10
2022-10-01T17:48:28.726Z,16.12
2022-10-01T17:51:07.134Z,15.95
2022-10-01T17:53:41.895Z,15.90
2022-10-01T17:56:13.107Z,15.96
2022-10-01T17:58:42.950Z,15.94
2022-10-01T18:01:19.522Z,15.94
2022-10-01T18:03:46.042Z,15.73
2022-10-01T18:06:14.238Z,15.71
2022-10-01T18:08:54.673Z,15.58
2022-10-01T18:11:21.971Z,15.51
2022-10-01T18:13:50.235Z,15.39
2022-10-01T18:16:19.204Z,15.35
2022-10-01T18:21:33.125Z,15.31
2022-10-01T18:24:04.271Z,15.03
2022-10-01T18:26:31.846Z,14.90
2022-10-01T18:28:58.362Z,14.84
2022-10-01T18:31:35.481Z,14.95
2022-10-01T18:34:05.902Z,14.79
2022-10-01T18:36:55.647Z,14.86
2022-10-01T18:39:36.763Z,14.62
2022-10-01T18:42:14.407Z,14.73
2022-10-01T18:44:40.891Z,14.61
2022-10-01T18:47:12.386Z,14.40
2022-10-01T18:49:54.000Z,14.40
2022-10-01T18:53:04.563Z,14.14
2022-10-01T18:55:45.672Z,14.20
2022-10-01T18:59:03.679Z,14.12
2022-10-01T19:01:30.163Z,14.05
2022-10-01T19:04:09.442Z,14.05
2022-10-01T19:06:44.923Z,13.98
2022-10-01T19:09:34.580Z,13.84
2022-10-01T19:12:20.589Z,13.77
2022-10-01T19:15:13.758Z,13.82
2022-10-01T19:17:57.250Z,13.78
2022-10-01T19:20:49.885Z,13.78
2022-10-01T19:23:49.332Z,13.73
2022-10-01T19:26:25.794Z,13.70
2022-10-01T19:28:55.209Z,13.78
2022-10-01T19:31:47.938Z,13.81
2022-10-01T19:34:22.332Z,13.66
2022-10-01T19:36:55.003Z,13.73
2022-10-01T19:39:25.943Z,13.62
2022-10-01T19:41:59.137Z,13.71
2022-10-01T19:44:53.877Z,13.64
2022-10-01T19:47:40.991Z,13.65
2022-10-01T19:50:28.963Z,13.66
2022-10-01T19:52:58.239Z,13.54
2022-10-01T19:55:25.901Z,13.44
2022-10-01T19:57:52.959Z,13.47
2022-10-01T20:00:21.777Z,13.31
2022-10-01T20:03:13.598Z,13.32
2022-10-01T20:05:47.196Z,13.40
2022-10-01T20:08:28.927Z,13.34
2022-10-01T20:11:01.235Z,13.21
2022-10-01T20:14:40.893Z,13.25
2022-10-01T20:17:24.995Z,13.18
2022-10-01T20:20:16.221Z,13.10
2022-10-01T20:22:53.879Z,13.05
2022-10-01T20:25:57.997Z,12.96
2022-10-01T20:28:36.548Z,12.87
2022-10-01T20:31:27.249Z,12.85
2022-10-01T20:34:19.485Z,12.76
2022-10-01T20:36:56.790Z,12.80
2022-10-01T20:39:31.065Z,12.78
2022-10-01T20:41:58.225Z,12.70
2022-10-01T20:44:43.761Z,12.62
2022-10-01T20:47:44.310Z,12.60
2022-10-01T20:50:17.929Z,12.60
2022-10-01T20:53:03.239Z,12.61
2022-10-01T20:55:40.752Z,12.50
2022-10-01T20:58:15.193Z,12.44
2022-10-01T21:00:43.889Z,12.47
2022-10-01T21:03:24.057Z,12.49
2022-10-01T21:05:56.635Z,12.46
2022-10-01T21:08:47.389Z,12.41
2022-10-01T21:11:32.175Z,12.36
2022-10-01T21:14:21.549Z,12.29
2022-10-01T21:17:22.206Z,12.32
2022-10-01T21:19:48.616Z,12.33
2022-10-01T21:22:27.185Z,12.35
2022-10-01T21:25:18.991Z,12.32
2022-10-01T21:28:10.456Z,12.22
2022-10-01T21:30:58.212Z,12.20
2022-10-01T21:33:30.521Z,12.16
2022-10-01T21:36:03.277Z,12.16
2022-10-01T21:38:37.982Z,12.14
2022-10-01T21:41:23.127Z,12.18
2022-10-01T21:43:58.473Z,12.16
2022-10-01T21:46:47.203Z,12.14
2022-10-01T21:49:51.371Z,12.16
2022-10-01T21:52:30.484Z,12.15
2022-10-01T21:55:13.722Z,12.18
2022-10-01T21:57:48.212Z,12.12
2022-10-01T22:00:24.027Z,12.03
2022-10-01T22:02:53.625Z,12.08
2022-10-01T22:06:01.699Z,12.09
2022-10-01T22:08:37.194Z,12.08
2022-10-01T22:11:11.001Z,12.08
2022-10-01T22:13:45.952Z,12.08
2022-10-01T22:16:14.675Z,12.18
2022-10-01T22:18:46.105Z,12.11
2022-10-01T22:21:17.394Z,12.25
2022-10-01T22:23:57.948Z,12.21
2022-10-01T22:26:29.266Z,12.23
2022-10-01T22:28:56.752Z,12.22
2022-10-01T22:31:27.896Z,12.27
2022-10-01T22:33:59.944Z,12.33
2022-10-01T22:36:36.455Z,12.34
2022-10-01T22:39:19.482Z,12.41
2022-10-01T22:41:52.067Z,12.67
2022-10-01T22:44:20.719Z,12.57
2022-10-01T22:46:50.260Z,12.64
2022-10-01T22:49:48.358Z,12.90
2022-10-01T22:52:20.502Z,12.97
2022-10-01T22:55:09.459Z,13.02
2022-10-01T22:57:57.521Z,13.00
2022-10-01T23:00:24.199Z,12.86
2022-10-01T23:02:56.360Z,12.98
2022-10-01T23:05:57.685Z,12.99
2022-10-01T23:08:35.911Z,12.83
2022-10-01T23:11:25.202Z,13.04
2022-10-01T23:14:16.021Z,12.97
2022-10-01T23:17:01.798Z,13.02
2022-10-01T23:20:13.331Z,12.89
2022-10-01T23:23:01.353Z,12.88
2022-10-01T23:25:58.421Z,12.79
2022-10-01T23:28:49.627Z,12.79
2022-10-01T23:31:25.524Z,12.71
2022-10-01T23:34:18.256Z,12.71
2022-10-01T23:36:53.297Z,12.67
2022-10-01T23:39:35.354Z,12.61
2022-10-01T23:42:19.435Z,12.70
2022-10-01T23:45:17.525Z,12.73
2022-10-01T23:47:57.556Z,12.67
2022-10-01T23:50:32.375Z,12.59
2022-10-01T23:53:13.098Z,12.56
2022-10-01T23:56:10.770Z,12.49
2022-10-01T23:58:51.767Z,12.43
